createdAt,value
2022-08-17T00:00:49.340Z,19.91
2022-08-17T00:01:52.649Z,19.91
2022-08-17T00:02:42.862Z,19.92
2022-08-17T00:03:40.218Z,19.95
2022-08-17T00:04:40.156Z,19.99
2022-08-17T00:05:40.161Z,19.99
2022-08-17T00:06:40.127Z,19.94
2022-08-17T00:07:40.151Z,19.87
2022-08-17T00:08:40.146Z,19.83
2022-08-17T00:09:40.109Z,19.83
2022-08-17T00:10:40.082Z,19.84
2022-08-17T00:11:40.078Z,19.84
2022-08-17T00:12:42.578Z,19.91
2022-08-17T00:13:40.064Z,19.96
2022-08-17T00:14:40.621Z,20.02
2022-08-17T00:15:40.025Z,20.10
2022-08-17T00:16:55.376Z,20.17
2022-08-17T00:17:40.018Z,20.24
2022-08-17T00:19:02.200Z,20.32
2022-08-17T00:19:39.968Z,20.38
2022-08-17T00:20:39.963Z,20.47
2022-08-17T00:21:59.952Z,20.51
2022-08-17T00:22:40.029Z,20.52
2022-08-17T00:23:39.930Z,20.43
2022-08-17T00:24:39.926Z,20.38
2022-08-17T00:25:40.681Z,20.28
2022-08-17T00:26:44.576Z,20.17
2022-08-17T00:27:39.892Z,20.05
2022-08-17T00:28:39.876Z,19.96
2022-08-17T00:29:39.849Z,19.87
2022-08-17T00:30:48.495Z,19.83
2022-08-17T00:31:39.837Z,19.77
2022-08-17T00:33:14.624Z,19.74
2022-08-17T00:33:39.806Z,19.71
2022-08-17T00:34:39.808Z,19.65
2022-08-17T00:35:39.761Z,19.58
2022-08-17T00:36:39.742Z,19.50
2022-08-17T00:37:39.762Z,19.47
2022-08-17T00:38:39.715Z,19.43
2022-08-17T00:39:39.756Z,19.44
2022-08-17T00:40:44.229Z,19.44
2022-08-17T00:41:42.269Z,19.47
2022-08-17T00:42:39.676Z,19.48
2022-08-17T00:43:39.655Z,19.50
2022-08-17T00:44:39.643Z,19.56
2022-08-17T00:45:39.648Z,19.59
2022-08-17T00:46:39.612Z,19.59
2022-08-17T00:47:39.599Z,19.58
2022-08-17T00:48:39.584Z,19.55
2022-08-17T00:49:39.576Z,19.50
2022-08-17T00:50:39.596Z,19.46
2022-08-17T00:51:39.552Z,19.41
2022-08-17T00:52:39.525Z,19.40
2022-08-17T00:53:39.525Z,19.39
2022-08-17T00:54:41.809Z,19.37
2022-08-17T00:55:39.525Z,19.36
2022-08-17T00:56:39.498Z,19.36
2022-08-17T00:57:39.503Z,19.36
2022-08-17T00:58:39.521Z,19.41
2022-08-17T00:59:39.470Z,19.43
2022-08-17T01:00:39.497Z,19.50
2022-08-17T01:01:39.494Z,19.54
2022-08-17T01:02:41.561Z,19.56
2022-08-17T01:03:39.382Z,19.61
2022-08-17T01:04:39.378Z,19.62
2022-08-17T01:05:42.145Z,19.62
2022-08-17T01:06:39.350Z,19.61
2022-08-17T01:07:39.333Z,19.56
2022-08-17T01:08:39.312Z,19.58
2022-08-17T01:09:39.337Z,19.56
2022-08-17T01:11:00.335Z,19.54
2022-08-17T01:11:39.305Z,19.54
2022-08-17T01:12:39.277Z,19.55
2022-08-17T01:13:41.255Z,19.55
2022-08-17T01:14:39.260Z,19.55
2022-08-17T01:15:39.221Z,19.56
2022-08-17T01:16:39.209Z,19.56
2022-08-17T01:17:39.224Z,19.58
2022-08-17T01:18:39.177Z,19.56
2022-08-17T01:19:39.205Z,19.55
2022-08-17T01:20:48.060Z,19.54
2022-08-17T01:21:39.159Z,19.51
2022-08-17T01:22:39.159Z,19.50
2022-08-17T01:23:39.118Z,19.50
2022-08-17T01:24:39.139Z,19.51
2022-08-17T01:25:39.087Z,19.54
2022-08-17T01:26:39.086Z,19.56
2022-08-17T01:27:39.058Z,19.61
2022-08-17T01:28:54.974Z,19.66
2022-08-17T01:29:39.062Z,19.73
2022-08-17T01:30:58.019Z,19.77
2022-08-17T01:31:39.037Z,19.80
2022-08-17T01:32:39.009Z,19.81
2022-08-17T01:33:38.989Z,19.83
2022-08-17T01:34:43.353Z,19.81
2022-08-17T01:35:38.986Z,19.81
2022-08-17T01:36:38.942Z,19.80
2022-08-17T01:37:38.931Z,19.77
2022-08-17T01:38:38.912Z,19.73
2022-08-17T01:39:38.951Z,19.66
2022-08-17T01:40:38.911Z,19.62
2022-08-17T01:41:38.895Z,19.56
2022-08-17T01:42:38.875Z,19.54
2022-08-17T01:43:38.846Z,19.51
2022-08-17T01:44:38.836Z,19.50
2022-08-17T01:45:38.847Z,19.51
2022-08-17T01:46:38.845Z,19.54
2022-08-17T01:47:38.815Z,19.56
2022-08-17T01:48:38.781Z,19.62
2022-08-17T01:49:38.777Z,19.66
2022-08-17T01:50:38.810Z,19.71
2022-08-17T01:51:38.748Z,19.76
2022-08-17T01:52:38.742Z,19.76
2022-08-17T01:53:38.720Z,19.73
2022-08-17T01:54:38.690Z,19.68
2022-08-17T01:55:38.732Z,19.66
2022-08-17T01:56:38.667Z,19.65
2022-08-17T01:57:38.665Z,19.65
2022-08-17T01:58:38.680Z,19.69
2022-08-17T01:59:38.659Z,19.74
2022-08-17T02:00:59.654Z,19.81
2022-08-17T02:01:39.670Z,19.87
2022-08-17T02:02:38.627Z,19.92
2022-08-17T02:03:38.588Z,19.96
2022-08-17T02:04:38.568Z,20.01
2022-08-17T02:05:38.562Z,20.03
2022-08-17T02:06:52.590Z,20.05
2022-08-17T02:07:59.622Z,20.06
2022-08-17T02:08:39.482Z,20.10
2022-08-17T02:09:38.539Z,20.10
2022-08-17T02:10:39.217Z,20.13
2022-08-17T02:11:38.526Z,20.13
2022-08-17T02:12:39.885Z,20.14
2022-08-17T02:13:38.470Z,20.14
2022-08-17T02:14:38.443Z,20.14
2022-08-17T02:15:38.413Z,20.11
2022-08-17T02:16:38.446Z,20.06
2022-08-17T02:17:38.462Z,19.98
2022-08-17T02:18:38.439Z,19.92
2022-08-17T02:19:38.403Z,19.80
2022-08-17T02:20:42.379Z,19.68
2022-08-17T02:21:38.349Z,19.62
2022-08-17T02:22:38.352Z,19.54
2022-08-17T02:23:38.319Z,19.44
2022-08-17T02:25:00.689Z,19.37
2022-08-17T02:25:38.297Z,19.31
2022-08-17T02:26:38.270Z,19.32
2022-08-17T02:27:38.269Z,19.33
2022-08-17T02:28:38.281Z,19.40
2022-08-17T02:29:38.242Z,19.40
2022-08-17T02:31:02.741Z,19.41
2022-08-17T02:31:38.210Z,19.41
2022-08-17T02:32:38.189Z,19.39
2022-08-17T02:33:42.677Z,19.36
2022-08-17T02:34:38.192Z,19.29
2022-08-17T02:35:38.164Z,19.28
2022-08-17T02:36:38.151Z,19.28
2022-08-17T02:37:38.167Z,19.33
2022-08-17T02:38:38.115Z,19.40
2022-08-17T02:39:38.740Z,19.44
2022-08-17T02:40:38.104Z,19.50
2022-08-17T02:41:38.087Z,19.56
2022-08-17T02:42:38.061Z,19.65
2022-08-17T02:43:38.077Z,19.69
2022-08-17T02:44:39.852Z,19.73
2022-08-17T02:45:38.041Z,19.78
2022-08-17T02:46:38.035Z,19.84
2022-08-17T02:47:38.018Z,19.91
2022-08-17T02:48:37.976Z,19.94
2022-08-17T02:49:37.978Z,19.94
2022-08-17T02:50:37.965Z,19.95
2022-08-17T02:51:37.971Z,19.95
2022-08-17T02:52:43.055Z,19.98
2022-08-17T02:53:37.945Z,19.98
2022-08-17T02:54:41.608Z,19.95
2022-08-17T02:55:37.887Z,19.92
2022-08-17T02:56:37.899Z,19.92
2022-08-17T02:57:37.873Z,19.84
2022-08-17T02:58:37.877Z,19.74
2022-08-17T02:59:37.856Z,19.66
2022-08-17T03:00:38.493Z,19.59
2022-08-17T03:01:37.881Z,19.55
2022-08-17T03:02:37.937Z,19.56
2022-08-17T03:03:37.839Z,19.56
2022-08-17T03:04:37.769Z,19.47
2022-08-17T03:05:37.761Z,19.36
2022-08-17T03:06:37.745Z,19.31
2022-08-17T03:07:37.794Z,19.32
2022-08-17T03:08:37.729Z,19.39
2022-08-17T03:09:37.702Z,19.41
2022-08-17T03:10:37.688Z,19.37
2022-08-17T03:11:37.718Z,19.32
2022-08-17T03:12:37.659Z,19.31
2022-08-17T03:13:37.708Z,19.31
2022-08-17T03:14:41.234Z,19.33
2022-08-17T03:15:37.619Z,19.39
2022-08-17T03:16:38.472Z,19.44
2022-08-17T03:17:37.603Z,19.48
2022-08-17T03:18:37.617Z,19.48
2022-08-17T03:19:37.572Z,19.50
2022-08-17T03:20:37.566Z,19.55
2022-08-17T03:21:37.571Z,19.59
2022-08-17T03:22:38.288Z,19.63
2022-08-17T03:23:37.540Z,19.69
2022-08-17T03:24:37.541Z,19.77
2022-08-17T03:25:37.487Z,19.83
2022-08-17T03:26:37.486Z,19.87
2022-08-17T03:27:37.507Z,19.94
2022-08-17T03:28:37.480Z,19.95
2022-08-17T03:29:37.456Z,19.95
2022-08-17T03:30:38.131Z,19.96
2022-08-17T03:31:38.131Z,19.96
2022-08-17T03:32:37.422Z,19.96
2022-08-17T03:33:37.989Z,19.94
2022-08-17T03:34:37.386Z,19.92
2022-08-17T03:35:37.352Z,19.91
2022-08-17T03:36:37.370Z,19.86
2022-08-17T03:37:37.386Z,19.87
2022-08-17T03:38:39.472Z,19.86
2022-08-17T03:39:38.176Z,19.83
2022-08-17T03:40:56.436Z,19.78
2022-08-17T03:41:37.289Z,19.73
2022-08-17T03:42:37.255Z,19.68
2022-08-17T03:43:37.244Z,19.62
2022-08-17T03:44:37.254Z,19.61
2022-08-17T03:45:37.337Z,19.59
2022-08-17T03:46:37.207Z,19.61
2022-08-17T03:47:37.197Z,19.63
2022-08-17T03:48:37.187Z,19.63
2022-08-17T03:49:37.221Z,19.63
2022-08-17T03:50:37.171Z,19.62
2022-08-17T03:51:38.085Z,19.59
2022-08-17T03:52:37.145Z,19.55
2022-08-17T03:53:37.116Z,19.51
2022-08-17T03:54:37.119Z,19.51
2022-08-17T03:55:37.082Z,19.48
2022-08-17T03:56:37.997Z,19.48
2022-08-17T03:57:37.061Z,19.50
2022-08-17T03:58:37.045Z,19.51
2022-08-17T03:59:37.058Z,19.55
2022-08-17T04:00:39.727Z,19.58
2022-08-17T04:01:37.075Z,19.62
2022-08-17T04:02:37.007Z,19.63
2022-08-17T04:03:36.975Z,19.69
2022-08-17T04:04:37.013Z,19.76
2022-08-17T04:05:36.979Z,19.80
2022-08-17T04:06:36.943Z,19.81
2022-08-17T04:07:36.973Z,19.83
2022-08-17T04:08:36.937Z,19.84
2022-08-17T04:09:36.949Z,19.83
2022-08-17T04:10:38.365Z,19.84
2022-08-17T04:11:37.585Z,19.81
2022-08-17T04:12:36.862Z,19.78
2022-08-17T04:13:36.850Z,19.76
2022-08-17T04:14:52.281Z,19.73
2022-08-17T04:15:36.841Z,19.69
2022-08-17T04:16:36.821Z,19.71
2022-08-17T04:17:36.796Z,19.73
2022-08-17T04:18:36.828Z,19.73
2022-08-17T04:19:36.841Z,19.76
2022-08-17T04:20:36.761Z,19.73
2022-08-17T04:21:36.741Z,19.74
2022-08-17T04:22:36.735Z,19.74
2022-08-17T04:23:36.701Z,19.76
2022-08-17T04:24:36.731Z,19.74
2022-08-17T04:25:36.698Z,19.78
2022-08-17T04:26:52.981Z,19.83
2022-08-17T04:27:36.699Z,19.86
2022-08-17T04:28:36.683Z,19.88
2022-08-17T04:29:54.200Z,19.88
2022-08-17T04:30:36.658Z,19.86
2022-08-17T04:31:36.630Z,19.80
2022-08-17T04:33:02.297Z,19.76
2022-08-17T04:33:36.603Z,19.69
2022-08-17T04:34:36.599Z,19.68
2022-08-17T04:35:36.562Z,19.68
2022-08-17T04:36:36.568Z,19.69
2022-08-17T04:37:36.529Z,19.73
2022-08-17T04:38:36.543Z,19.76
2022-08-17T04:39:36.576Z,19.80
2022-08-17T04:40:36.536Z,19.83
2022-08-17T04:41:36.467Z,19.86
2022-08-17T04:42:36.471Z,19.92
2022-08-17T04:43:36.442Z,19.96
2022-08-17T04:44:37.795Z,19.99
2022-08-17T04:45:36.475Z,20.02
2022-08-17T04:46:36.454Z,20.02
2022-08-17T04:47:36.400Z,20.01
2022-08-17T04:48:37.565Z,19.92
2022-08-17T04:49:36.387Z,19.83
2022-08-17T04:50:36.386Z,19.80
2022-08-17T04:51:36.393Z,19.77
2022-08-17T04:52:43.505Z,19.73
2022-08-17T04:53:36.334Z,19.69
2022-08-17T04:54:36.297Z,19.69
2022-08-17T04:55:36.310Z,19.69
2022-08-17T04:56:36.309Z,19.68
2022-08-17T04:57:39.396Z,19.68
2022-08-17T04:58:36.262Z,19.66
2022-08-17T04:59:36.263Z,19.66
2022-08-17T05:00:37.209Z,19.63
2022-08-17T05:01:37.014Z,19.65
2022-08-17T05:02:36.239Z,19.69
2022-08-17T05:03:36.266Z,19.76
2022-08-17T05:04:36.197Z,19.78
2022-08-17T05:05:36.170Z,19.81
2022-08-17T05:06:36.230Z,19.87
2022-08-17T05:07:36.161Z,19.92
2022-08-17T05:08:36.173Z,19.99
2022-08-17T05:09:36.114Z,20.03
2022-08-17T05:10:36.111Z,20.08
2022-08-17T05:11:36.090Z,20.14
2022-08-17T05:12:36.076Z,20.20
2022-08-17T05:13:36.626Z,20.24
2022-08-17T05:14:36.074Z,20.29
2022-08-17T05:15:36.181Z,20.33
2022-08-17T05:16:36.038Z,20.38
2022-08-17T05:17:35.999Z,20.39
2022-08-17T05:18:36.631Z,20.41
2022-08-17T05:19:36.006Z,20.42
2022-08-17T05:20:35.988Z,20.47
2022-08-17T05:21:35.952Z,20.50
2022-08-17T05:22:35.934Z,20.51
2022-08-17T05:23:42.439Z,20.54
2022-08-17T05:24:42.685Z,20.57
2022-08-17T05:25:36.285Z,20.61
2022-08-17T05:26:36.411Z,20.64
2022-08-17T05:27:36.125Z,20.66
2022-08-17T05:28:35.878Z,20.67
2022-08-17T05:29:36.063Z,20.69
2022-08-17T05:30:36.634Z,20.67
2022-08-17T05:31:35.824Z,20.69
2022-08-17T05:32:38.982Z,20.69
2022-08-17T05:33:35.785Z,20.69
2022-08-17T05:34:35.779Z,20.67
2022-08-17T05:35:35.817Z,20.67
2022-08-17T05:36:42.230Z,20.69
2022-08-17T05:37:35.735Z,20.69
2022-08-17T05:38:35.724Z,20.69
2022-08-17T05:39:35.745Z,20.67
2022-08-17T05:40:35.716Z,20.69
2022-08-17T05:41:35.679Z,20.70
2022-08-17T05:42:35.692Z,20.73
2022-08-17T05:43:35.725Z,20.74
2022-08-17T05:44:35.652Z,20.76
2022-08-17T05:45:54.584Z,20.77
2022-08-17T05:46:35.631Z,20.79
2022-08-17T05:47:35.614Z,20.80
2022-08-17T05:48:40.153Z,20.84
2022-08-17T05:49:35.575Z,20.82
2022-08-17T05:50:35.584Z,20.82
2022-08-17T05:51:36.623Z,20.77
2022-08-17T05:52:35.542Z,20.74
2022-08-17T05:53:36.240Z,20.73
2022-08-17T05:54:35.579Z,20.72
2022-08-17T05:55:35.493Z,20.73
2022-08-17T05:56:35.474Z,20.74
2022-08-17T05:57:35.527Z,20.77
2022-08-17T05:58:35.476Z,20.84
2022-08-17T05:59:35.424Z,20.88
2022-08-17T06:00:36.408Z,20.94
2022-08-17T06:01:35.491Z,20.97
2022-08-17T06:02:35.447Z,20.98
2022-08-17T06:03:35.413Z,21.01
2022-08-17T06:04:36.133Z,21.06
2022-08-17T06:05:35.984Z,21.10
2022-08-17T06:06:35.359Z,21.14
2022-08-17T06:07:36.165Z,21.13
2022-08-17T06:08:35.361Z,21.13
2022-08-17T06:09:35.325Z,21.12
2022-08-17T06:10:35.296Z,21.10
2022-08-17T06:11:35.380Z,21.09
2022-08-17T06:12:35.308Z,21.06
2022-08-17T06:13:35.322Z,21.01
2022-08-17T06:14:35.258Z,20.98
2022-08-17T06:15:35.219Z,20.97
2022-08-17T06:16:35.245Z,20.97
2022-08-17T06:17:35.213Z,20.95
2022-08-17T06:18:35.262Z,20.95
2022-08-17T06:19:35.172Z,20.95
2022-08-17T06:20:35.703Z,20.97
2022-08-17T06:21:35.148Z,20.97
2022-08-17T06:22:35.143Z,20.97
2022-08-17T06:23:35.200Z,20.95
2022-08-17T06:24:35.137Z,20.92
2022-08-17T06:25:35.106Z,20.89
2022-08-17T06:26:39.685Z,20.91
2022-08-17T06:27:35.597Z,20.91
2022-08-17T06:28:35.059Z,20.91
2022-08-17T06:29:35.058Z,20.94
2022-08-17T06:30:58.676Z,20.92
2022-08-17T06:31:35.010Z,20.92
2022-08-17T06:32:35.012Z,20.94
2022-08-17T06:33:34.993Z,20.95
2022-08-17T06:34:35.006Z,20.94
2022-08-17T06:35:35.622Z,20.92
2022-08-17T06:36:34.953Z,20.92
2022-08-17T06:37:34.920Z,20.97
2022-08-17T06:38:37.355Z,20.97
2022-08-17T06:39:35.649Z,20.99
2022-08-17T06:40:34.891Z,20.98
2022-08-17T06:41:37.562Z,20.98
2022-08-17T06:43:02.293Z,20.94
2022-08-17T06:43:34.893Z,20.92
2022-08-17T06:44:43.434Z,20.91
2022-08-17T06:45:34.829Z,20.91
2022-08-17T06:46:34.841Z,20.89
2022-08-17T06:47:34.806Z,20.87
2022-08-17T06:48:34.788Z,20.84
2022-08-17T06:49:34.762Z,20.79
2022-08-17T06:50:34.758Z,20.77
2022-08-17T06:51:34.782Z,20.76
2022-08-17T06:52:45.799Z,20.76
2022-08-17T06:53:35.508Z,20.76
2022-08-17T06:54:34.725Z,20.76
2022-08-17T06:55:38.094Z,20.76
2022-08-17T06:56:54.014Z,20.77
2022-08-17T06:57:35.628Z,20.77
2022-08-17T06:58:34.673Z,20.79
2022-08-17T06:59:36.245Z,20.80
2022-08-17T07:00:34.673Z,20.82
2022-08-17T07:01:34.664Z,20.84
2022-08-17T07:02:52.122Z,20.85
2022-08-17T07:03:34.613Z,20.84
2022-08-17T07:04:34.565Z,20.80
2022-08-17T07:05:34.642Z,20.84
2022-08-17T07:06:37.965Z,20.87
2022-08-17T07:07:34.581Z,20.87
2022-08-17T07:08:36.132Z,20.80
2022-08-17T07:09:34.547Z,20.74
2022-08-17T07:10:34.503Z,20.64
2022-08-17T07:11:34.475Z,20.66
2022-08-17T07:12:34.478Z,20.69
2022-08-17T07:13:34.473Z,20.67
2022-08-17T07:14:34.461Z,20.67
2022-08-17T07:15:34.440Z,20.67
2022-08-17T07:16:34.417Z,20.69
2022-08-17T07:17:47.740Z,20.72
2022-08-17T07:18:34.406Z,20.76
2022-08-17T07:19:34.384Z,20.74
2022-08-17T07:20:34.360Z,20.77
2022-08-17T07:21:34.350Z,20.77
2022-08-17T07:22:55.329Z,20.79
2022-08-17T07:23:34.340Z,20.79
2022-08-17T07:24:34.300Z,20.84
2022-08-17T07:25:34.333Z,20.80
2022-08-17T07:26:34.299Z,20.74
2022-08-17T07:27:35.062Z,20.73
2022-08-17T07:28:34.259Z,20.73
2022-08-17T07:29:34.271Z,20.70
2022-08-17T07:30:37.193Z,20.69
2022-08-17T07:31:34.254Z,20.69
2022-08-17T07:32:34.210Z,20.69
2022-08-17T07:33:35.129Z,20.67
2022-08-17T07:34:34.702Z,20.69
2022-08-17T07:35:40.941Z,20.66
2022-08-17T07:36:34.156Z,20.61
2022-08-17T07:37:34.120Z,20.54
2022-08-17T07:38:35.782Z,20.55
2022-08-17T07:39:34.148Z,20.51
2022-08-17T07:40:34.222Z,20.47
2022-08-17T07:41:53.151Z,20.39
2022-08-17T07:42:34.434Z,20.35
2022-08-17T07:43:34.054Z,20.28
2022-08-17T07:44:34.031Z,20.23
2022-08-17T07:45:34.071Z,20.21
2022-08-17T07:46:34.093Z,20.21
2022-08-17T07:47:33.987Z,20.23
2022-08-17T07:48:34.044Z,20.21
2022-08-17T07:49:33.990Z,20.18
2022-08-17T07:50:33.957Z,20.18
2022-08-17T07:51:33.964Z,20.23
2022-08-17T07:52:50.716Z,20.24
2022-08-17T07:53:33.923Z,20.24
2022-08-17T07:54:33.930Z,20.18
2022-08-17T07:55:33.923Z,20.17
2022-08-17T07:56:34.655Z,20.11
2022-08-17T07:57:33.886Z,20.10
2022-08-17T07:58:33.870Z,20.13
2022-08-17T07:59:34.072Z,20.16
2022-08-17T08:00:34.028Z,20.20
2022-08-17T08:01:41.801Z,20.29
2022-08-17T08:02:34.013Z,20.32
2022-08-17T08:03:33.825Z,20.36
2022-08-17T08:05:50.229Z,20.43
2022-08-17T08:06:33.738Z,20.43
2022-08-17T08:07:33.733Z,20.39
2022-08-17T08:08:33.726Z,20.31
2022-08-17T08:09:33.713Z,20.23
2022-08-17T08:10:33.729Z,20.21
2022-08-17T08:11:33.681Z,20.24
2022-08-17T08:12:34.206Z,20.26
2022-08-17T08:13:33.692Z,20.29
2022-08-17T08:14:33.674Z,20.32
2022-08-17T08:15:33.633Z,20.35
2022-08-17T08:16:33.624Z,20.41
2022-08-17T08:17:33.630Z,20.47
2022-08-17T08:18:54.882Z,20.47
2022-08-17T08:19:33.607Z,20.50
2022-08-17T08:20:52.348Z,20.48
2022-08-17T08:21:33.539Z,20.47
2022-08-17T08:22:33.561Z,20.42
2022-08-17T08:23:33.533Z,20.41
2022-08-17T08:24:33.506Z,20.41
2022-08-17T08:25:33.508Z,20.36
2022-08-17T08:26:33.510Z,20.33
2022-08-17T08:27:33.473Z,20.32
2022-08-17T08:28:33.472Z,20.31
2022-08-17T08:29:33.467Z,20.26
2022-08-17T08:30:33.439Z,20.29
2022-08-17T08:31:35.848Z,20.35
2022-08-17T08:32:33.399Z,20.38
2022-08-17T08:33:33.377Z,20.36
2022-08-17T08:34:45.441Z,20.39
2022-08-17T08:35:33.402Z,20.47
2022-08-17T08:37:12.700Z,20.47
2022-08-17T08:37:37.876Z,20.48
2022-08-17T08:38:33.315Z,20.50
2022-08-17T08:39:33.351Z,20.54
2022-08-17T08:40:33.279Z,20.59
2022-08-17T08:41:33.310Z,20.62
2022-08-17T08:42:33.273Z,20.67
2022-08-17T08:43:33.244Z,20.70
2022-08-17T08:45:01.278Z,20.73
2022-08-17T08:45:33.257Z,20.76
2022-08-17T08:46:33.681Z,20.79
2022-08-17T08:47:35.473Z,20.80
2022-08-17T08:48:52.797Z,20.80
2022-08-17T08:50:02.045Z,20.76
2022-08-17T08:50:38.093Z,20.76
2022-08-17T08:51:33.185Z,20.74
2022-08-17T08:52:33.133Z,20.74
2022-08-17T08:53:33.138Z,20.76
2022-08-17T08:54:33.126Z,20.77
2022-08-17T08:55:33.139Z,20.80
2022-08-17T08:56:33.123Z,20.84
2022-08-17T08:57:34.597Z,20.84
2022-08-17T08:58:42.242Z,20.87
2022-08-17T08:59:33.043Z,20.87
2022-08-17T09:00:33.026Z,20.88
2022-08-17T09:01:33.050Z,20.87
2022-08-17T09:02:34.821Z,20.82
2022-08-17T09:03:51.879Z,20.79
2022-08-17T09:04:49.952Z,20.73
2022-08-17T09:05:32.977Z,20.66
2022-08-17T09:06:39.158Z,20.62
2022-08-17T09:07:32.977Z,20.67
2022-08-17T09:08:32.933Z,20.70
2022-08-17T09:09:32.903Z,20.72
2022-08-17T09:10:32.903Z,20.74
2022-08-17T09:11:32.974Z,20.79
2022-08-17T09:12:32.885Z,20.79
2022-08-17T09:13:33.626Z,20.79
2022-08-17T09:14:45.113Z,20.79
2022-08-17T09:15:32.892Z,20.77
2022-08-17T09:16:32.821Z,20.79
2022-08-17T09:17:32.842Z,20.82
2022-08-17T09:19:01.089Z,20.82
2022-08-17T09:19:32.780Z,20.82
2022-08-17T09:20:32.758Z,20.82
2022-08-17T09:21:33.808Z,20.82
2022-08-17T09:22:32.740Z,20.84
2022-08-17T09:23:32.755Z,20.88
2022-08-17T09:24:32.720Z,20.92
2022-08-17T09:25:32.738Z,20.92
2022-08-17T09:26:32.690Z,20.88
2022-08-17T09:27:32.660Z,20.85
2022-08-17T09:28:32.681Z,20.89
2022-08-17T09:29:32.701Z,20.94
2022-08-17T09:30:32.623Z,20.98
2022-08-17T09:31:33.483Z,21.06
2022-08-17T09:32:32.603Z,21.07
2022-08-17T09:33:32.581Z,21.09
2022-08-17T09:34:33.367Z,21.10
2022-08-17T09:35:32.969Z,21.12
2022-08-17T09:36:32.550Z,21.14
2022-08-17T09:37:32.530Z,21.17
2022-08-17T09:38:32.857Z,21.21
2022-08-17T09:39:32.528Z,21.21
2022-08-17T09:40:32.545Z,21.22
2022-08-17T09:41:32.475Z,21.21
2022-08-17T09:42:32.490Z,21.22
2022-08-17T09:43:32.467Z,21.25
2022-08-17T09:44:32.443Z,21.27
2022-08-17T09:45:32.440Z,21.29
2022-08-17T09:46:32.446Z,21.32
2022-08-17T09:47:32.438Z,21.37
2022-08-17T09:48:32.388Z,21.40
2022-08-17T09:49:32.392Z,21.40
2022-08-17T09:50:57.382Z,21.46
2022-08-17T09:51:32.370Z,21.49
2022-08-17T09:52:32.329Z,21.50
2022-08-17T09:53:33.516Z,21.53
2022-08-17T09:54:39.131Z,21.53
2022-08-17T09:55:33.134Z,21.53
2022-08-17T09:56:32.281Z,21.56
2022-08-17T09:57:32.678Z,21.59
2022-08-17T09:58:32.317Z,21.64
2022-08-17T09:59:38.697Z,21.67
2022-08-17T10:00:32.252Z,21.71
2022-08-17T10:01:32.356Z,21.75
2022-08-17T10:02:32.208Z,21.82
2022-08-17T10:03:32.206Z,21.86
2022-08-17T10:04:32.194Z,21.94
2022-08-17T10:05:32.158Z,21.99
2022-08-17T10:06:32.155Z,22.18
2022-08-17T10:07:32.139Z,22.47
2022-08-17T10:08:32.125Z,22.55
2022-08-17T10:09:32.136Z,22.64
2022-08-17T10:10:32.408Z,22.57
2022-08-17T10:11:33.849Z,22.57
2022-08-17T10:12:32.057Z,22.61
2022-08-17T10:13:32.631Z,22.65
2022-08-17T10:14:38.027Z,22.67
2022-08-17T10:15:32.032Z,22.67
2022-08-17T10:16:32.023Z,22.67
2022-08-17T10:17:32.009Z,22.65
2022-08-17T10:18:33.308Z,22.65
2022-08-17T10:19:32.645Z,22.64
2022-08-17T10:20:31.982Z,22.67
2022-08-17T10:21:31.997Z,22.64
2022-08-17T10:22:34.478Z,22.68
2022-08-17T10:23:31.920Z,22.68
2022-08-17T10:24:31.973Z,22.64
2022-08-17T10:25:53.633Z,22.61
2022-08-17T10:26:43.053Z,22.62
2022-08-17T10:27:31.869Z,22.62
2022-08-17T10:28:31.846Z,22.62
2022-08-17T10:29:47.269Z,22.61
2022-08-17T10:30:31.858Z,22.61
2022-08-17T10:31:35.946Z,22.57
2022-08-17T10:32:31.841Z,22.54
2022-08-17T10:33:31.794Z,22.51
2022-08-17T10:34:34.194Z,22.49
2022-08-17T10:35:31.824Z,22.47
2022-08-17T10:36:31.757Z,22.45
2022-08-17T10:37:32.710Z,22.42
2022-08-17T10:38:31.729Z,22.31
2022-08-17T10:39:31.893Z,22.25
2022-08-17T10:40:31.743Z,22.24
2022-08-17T10:41:33.126Z,22.21
2022-08-17T10:42:32.681Z,22.18
2022-08-17T10:43:31.647Z,22.14
2022-08-17T10:44:38.974Z,22.09
2022-08-17T10:45:31.635Z,22.09
2022-08-17T10:46:31.904Z,22.07
2022-08-17T10:47:47.149Z,22.09
2022-08-17T10:48:32.231Z,22.10
2022-08-17T10:49:31.571Z,22.14
2022-08-17T10:50:31.571Z,22.18
2022-08-17T10:51:32.516Z,22.22
2022-08-17T10:52:31.556Z,22.22
2022-08-17T10:53:31.547Z,22.24
2022-08-17T10:54:31.534Z,22.25
2022-08-17T10:55:31.499Z,22.30
2022-08-17T10:56:31.503Z,22.33
2022-08-17T10:57:31.485Z,22.36
2022-08-17T10:58:31.477Z,22.37
2022-08-17T10:59:31.482Z,22.37
2022-08-17T11:00:31.423Z,22.45
2022-08-17T11:01:31.458Z,22.60
2022-08-17T11:02:31.411Z,22.65
2022-08-17T11:03:31.411Z,22.72
2022-08-17T11:04:31.417Z,22.79
2022-08-17T11:05:31.386Z,22.85
2022-08-17T11:06:31.334Z,22.86
2022-08-17T11:07:31.344Z,22.88
2022-08-17T11:08:31.321Z,22.91
2022-08-17T11:09:31.352Z,22.97
2022-08-17T11:10:31.302Z,23.00
2022-08-17T11:11:31.311Z,23.04
2022-08-17T11:12:31.281Z,23.10
2022-08-17T11:13:31.284Z,23.12
2022-08-17T11:14:31.250Z,23.13
2022-08-17T11:15:31.235Z,23.15
2022-08-17T11:16:31.266Z,23.17
2022-08-17T11:17:31.221Z,23.20
2022-08-17T11:18:31.214Z,23.23
2022-08-17T11:19:31.264Z,23.31
2022-08-17T11:20:31.174Z,23.32
2022-08-17T11:21:31.580Z,23.36
2022-08-17T11:22:33.553Z,23.39
2022-08-17T11:23:31.168Z,23.35
2022-08-17T11:24:31.132Z,23.36
2022-08-17T11:25:31.134Z,23.39
2022-08-17T11:26:31.142Z,23.40
2022-08-17T11:27:31.106Z,23.46
2022-08-17T11:28:31.068Z,23.46
2022-08-17T11:29:31.232Z,23.47
2022-08-17T11:30:31.042Z,23.53
2022-08-17T11:31:39.274Z,23.58
2022-08-17T11:32:31.048Z,23.57
2022-08-17T11:33:31.823Z,23.55
2022-08-17T11:34:30.974Z,23.54
2022-08-17T11:35:30.950Z,23.54
2022-08-17T11:36:30.962Z,23.54
2022-08-17T11:37:30.963Z,23.55
2022-08-17T11:38:30.963Z,23.61
2022-08-17T11:39:31.018Z,23.65
2022-08-17T11:40:30.907Z,23.65
2022-08-17T11:41:30.884Z,23.66
2022-08-17T11:42:30.929Z,23.68
2022-08-17T11:43:30.875Z,23.70
2022-08-17T11:44:30.871Z,23.72
2022-08-17T11:45:32.479Z,23.72
2022-08-17T11:46:30.825Z,23.69
2022-08-17T11:47:30.818Z,23.70
2022-08-17T11:48:31.104Z,23.69
2022-08-17T11:49:30.808Z,23.69
2022-08-17T11:50:30.776Z,23.70
2022-08-17T11:51:30.758Z,23.72
2022-08-17T11:52:30.754Z,23.75
2022-08-17T11:53:30.767Z,23.70
2022-08-17T11:54:33.878Z,23.65
2022-08-17T11:55:41.871Z,23.61
2022-08-17T11:56:30.710Z,23.60
2022-08-17T11:57:30.683Z,23.61
2022-08-17T11:58:30.705Z,23.61
2022-08-17T11:59:30.693Z,23.60
2022-08-17T12:00:30.659Z,23.60
2022-08-17T12:01:30.616Z,23.58
2022-08-17T12:02:31.475Z,23.58
2022-08-17T12:03:30.664Z,23.57
2022-08-17T12:04:30.702Z,23.55
2022-08-17T12:05:30.590Z,23.53
2022-08-17T12:06:31.115Z,23.51
2022-08-17T12:07:30.541Z,23.53
2022-08-17T12:08:30.539Z,23.55
2022-08-17T12:09:30.537Z,23.54
2022-08-17T12:10:30.523Z,23.53
2022-08-17T12:11:58.731Z,23.54
2022-08-17T12:12:30.488Z,23.57
2022-08-17T12:13:38.416Z,23.60
2022-08-17T12:14:51.712Z,23.63
2022-08-17T12:15:30.485Z,23.63
2022-08-17T12:16:30.438Z,23.65
2022-08-17T12:17:41.389Z,23.66
2022-08-17T12:18:30.398Z,23.68
2022-08-17T12:19:30.408Z,23.68
2022-08-17T12:20:30.382Z,23.69
2022-08-17T12:21:30.373Z,23.72
2022-08-17T12:22:30.348Z,23.76
2022-08-17T12:23:30.352Z,23.79
2022-08-17T12:24:30.340Z,23.80
2022-08-17T12:25:30.342Z,23.83
2022-08-17T12:26:30.339Z,23.85
2022-08-17T12:28:04.455Z,23.91
2022-08-17T12:28:30.263Z,23.97
2022-08-17T12:29:35.427Z,24.00
2022-08-17T12:30:30.292Z,24.06
2022-08-17T12:31:30.227Z,24.10
2022-08-17T12:32:30.242Z,24.13
2022-08-17T12:33:30.234Z,24.21
2022-08-17T12:34:30.209Z,24.31
2022-08-17T12:35:30.157Z,24.42
2022-08-17T12:36:30.162Z,24.55
2022-08-17T12:37:30.141Z,24.67
2022-08-17T12:38:32.436Z,24.78
2022-08-17T12:39:30.164Z,24.81
2022-08-17T12:40:30.128Z,24.88
2022-08-17T12:41:30.120Z,24.95
2022-08-17T12:42:30.091Z,24.98
2022-08-17T12:43:30.076Z,24.96
2022-08-17T12:44:30.073Z,25.02
2022-08-17T12:45:30.044Z,25.09
2022-08-17T12:46:30.026Z,25.14
2022-08-17T12:47:30.007Z,25.18
2022-08-17T12:48:30.102Z,25.24
2022-08-17T12:49:29.990Z,25.30
2022-08-17T12:50:30.337Z,25.38
2022-08-17T12:51:29.957Z,25.43
2022-08-17T12:52:29.950Z,25.45
2022-08-17T12:53:29.946Z,25.47